sensor_id;sensor_type;location;lat;lon;timestamp;P1;durP1;ratioP1;P2;durP2;ratioP2
27833;SDS011;15200;50.570;7.244;2023-02-28T00:01:33;3.20;;;2.03;;
27833;SDS011;15200;50.570;7.244;2023-02-28T00:04:00;4.03;;;1.83;;
27833;SDS011;15200;50.570;7.244;2023-02-28T00:06:28;5.27;;;2.50;;
27833;SDS011;15200;50.570;7.244;2023-02-28T00:08:55;4.87;;;1.90;;
27833;SDS011;15200;50.570;7.244;2023-02-28T00:11:22;2.50;;;1.80;;
27833;SDS011;15200;50.570;7.244;2023-02-28T00:13:50;3.70;;;2.20;;
27833;SDS011;15200;50.570;7.244;2023-02-28T00:16:21;2.23;;;1.70;;
27833;SDS011;15200;50.570;7.244;2023-02-28T00:18:49;2.37;;;1.80;;
27833;SDS011;15200;50.570;7.244;2023-02-28T00:21:17;3.33;;;1.63;;
27833;SDS011;15200;50.570;7.244;2023-02-28T00:23:45;2.70;;;1.60;;
27833;SDS011;15200;50.570;7.244;2023-02-28T00:26:12;3.40;;;1.90;;
27833;SDS011;15200;50.570;7.244;2023-02-28T00:28:39;1.60;;;1.47;;
27833;SDS011;15200;50.570;7.244;2023-02-28T00:31:07;4.27;;;2.03;;
27833;SDS011;15200;50.570;7.244;2023-02-28T00:33:34;3.63;;;1.90;;
27833;SDS011;15200;50.570;7.244;2023-02-28T00:36:05;5.47;;;2.80;;
27833;SDS011;15200;50.570;7.244;2023-02-28T00:38:32;4.13;;;2.30;;
27833;SDS011;15200;50.570;7.244;2023-02-28T00:41:00;6.97;;;2.93;;
27833;SDS011;15200;50.570;7.244;2023-02-28T00:43:30;4.13;;;2.27;;
27833;SDS011;15200;50.570;7.244;2023-02-28T00:45:57;3.47;;;1.77;;
27833;SDS011;15200;50.570;7.244;2023-02-28T00:48:24;4.43;;;2.10;;
27833;SDS011;15200;50.570;7.244;2023-02-28T00:50:51;5.87;;;2.23;;
27833;SDS011;15200;50.570;7.244;2023-02-28T00:53:19;4.37;;;2.27;;
27833;SDS011;15200;50.570;7.244;2023-02-28T00:55:46;4.83;;;2.20;;
27833;SDS011;15200;50.570;7.244;2023-02-28T00:58:14;3.53;;;1.90;;
27833;SDS011;15200;50.570;7.244;2023-02-28T01:00:41;3.17;;;1.70;;
27833;SDS011;15200;50.570;7.244;2023-02-28T01:03:08;4.50;;;1.90;;
27833;SDS011;15200;50.570;7.244;2023-02-28T01:05:36;2.90;;;1.60;;
27833;SDS011;15200;50.570;7.244;2023-02-28T01:08:03;3.33;;;1.90;;
27833;SDS011;15200;50.570;7.244;2023-02-28T01:10:30;4.77;;;1.77;;
27833;SDS011;15200;50.570;7.244;2023-02-28T01:12:58;3.13;;;1.90;;
27833;SDS011;15200;50.570;7.244;2023-02-28T01:15:25;6.57;;;2.03;;
27833;SDS011;15200;50.570;7.244;2023-02-28T01:17:52;2.57;;;1.77;;
27833;SDS011;15200;50.570;7.244;2023-02-28T01:20:20;4.20;;;2.00;;
27833;SDS011;15200;50.570;7.244;2023-02-28T01:22:47;3.47;;;2.07;;
27833;SDS011;15200;50.570;7.244;2023-02-28T01:25:14;5.50;;;2.07;;
27833;SDS011;15200;50.570;7.244;2023-02-28T01:27:42;2.50;;;1.70;;
27833;SDS011;15200;50.570;7.244;2023-02-28T01:30:09;2.63;;;1.60;;
27833;SDS011;15200;50.570;7.244;2023-02-28T01:32:36;2.10;;;1.60;;
27833;SDS011;15200;50.570;7.244;2023-02-28T01:35:04;4.00;;;1.80;;
27833;SDS011;15200;50.570;7.244;2023-02-28T01:37:31;3.77;;;1.67;;
27833;SDS011;15200;50.570;7.244;2023-02-28T01:39:59;3.67;;;1.70;;
27833;SDS011;15200;50.570;7.244;2023-02-28T01:42:26;7.60;;;2.00;;
27833;SDS011;15200;50.570;7.244;2023-02-28T01:45:08;2.77;;;1.87;;
27833;SDS011;15200;50.570;7.244;2023-02-28T01:47:33;2.53;;;1.87;;
27833;SDS011;15200;50.570;7.244;2023-02-28T01:50:01;2.37;;;1.63;;
27833;SDS011;15200;50.570;7.244;2023-02-28T01:52:29;3.37;;;1.70;;
27833;SDS011;15200;50.570;7.244;2023-02-28T01:54:56;2.97;;;2.33;;
27833;SDS011;15200;50.570;7.244;2023-02-28T01:57:27;3.43;;;1.80;;
27833;SDS011;15200;50.570;7.244;2023-02-28T01:59:55;3.17;;;1.70;;
27833;SDS011;15200;50.570;7.244;2023-02-28T02:02:25;3.40;;;1.80;;
27833;SDS011;15200;50.570;7.244;2023-02-28T02:07:39;4.20;;;1.67;;
27833;SDS011;15200;50.570;7.244;2023-02-28T02:15:24;3.70;;;1.70;;
27833;SDS011;15200;50.570;7.244;2023-02-28T02:17:51;7.17;;;1.80;;
27833;SDS011;15200;50.570;7.244;2023-02-28T02:23:07;3.43;;;2.00;;
27833;SDS011;15200;50.570;7.244;2023-02-28T02:25:54;3.80;;;1.63;;
27833;SDS011;15200;50.570;7.244;2023-02-28T02:28:08;3.23;;;1.80;;
27833;SDS011;15200;50.570;7.244;2023-02-28T02:33:38;5.53;;;1.90;;
27833;SDS011;15200;50.570;7.244;2023-02-28T02:36:04;3.20;;;1.60;;
27833;SDS011;15200;50.570;7.244;2023-02-28T02:38:35;1.73;;;1.53;;
27833;SDS011;15200;50.570;7.244;2023-02-28T02:43:35;3.47;;;1.60;;
27833;SDS011;15200;50.570;7.244;2023-02-28T02:46:04;3.30;;;1.80;;
27833;SDS011;15200;50.570;7.244;2023-02-28T02:48:32;2.17;;;1.90;;
27833;SDS011;15200;50.570;7.244;2023-02-28T02:51:01;3.30;;;1.60;;
27833;SDS011;15200;50.570;7.244;2023-02-28T02:53:34;2.07;;;1.60;;
27833;SDS011;15200;50.570;7.244;2023-02-28T02:55:58;4.17;;;1.80;;
27833;SDS011;15200;50.570;7.244;2023-02-28T02:58:27;3.30;;;1.77;;
27833;SDS011;15200;50.570;7.244;2023-02-28T03:00:56;2.27;;;1.50;;
27833;SDS011;15200;50.570;7.244;2023-02-28T03:03:24;3.27;;;2.63;;
27833;SDS011;15200;50.570;7.244;2023-02-28T03:05:58;3.97;;;1.53;;
27833;SDS011;15200;50.570;7.244;2023-02-28T03:08:26;5.07;;;1.80;;
27833;SDS011;15200;50.570;7.244;2023-02-28T03:10:58;6.13;;;1.90;;
27833;SDS011;15200;50.570;7.244;2023-02-28T03:19:02;3.67;;;1.60;;
27833;SDS011;15200;50.570;7.244;2023-02-28T03:21:36;2.20;;;1.80;;
27833;SDS011;15200;50.570;7.244;2023-02-28T03:24:11;1.90;;;1.53;;
27833;SDS011;15200;50.570;7.244;2023-02-28T03:26:40;4.30;;;2.20;;
27833;SDS011;15200;50.570;7.244;2023-02-28T03:29:12;3.47;;;1.90;;
27833;SDS011;15200;50.570;7.244;2023-02-28T03:31:39;3.93;;;1.77;;
27833;SDS011;15200;50.570;7.244;2023-02-28T03:34:17;3.30;;;2.07;;
27833;SDS011;15200;50.570;7.244;2023-02-28T03:36:47;3.43;;;2.00;;
27833;SDS011;15200;50.570;7.244;2023-02-28T03:39:16;2.10;;;1.60;;
27833;SDS011;15200;50.570;7.244;2023-02-28T03:41:44;4.13;;;1.90;;
27833;SDS011;15200;50.570;7.244;2023-02-28T03:44:14;4.90;;;1.80;;
27833;SDS011;15200;50.570;7.244;2023-02-28T03:46:44;2.53;;;2.00;;
27833;SDS011;15200;50.570;7.244;2023-02-28T03:49:14;2.80;;;1.70;;
27833;SDS011;15200;50.570;7.244;2023-02-28T03:51:40;2.70;;;2.03;;
27833;SDS011;15200;50.570;7.244;2023-02-28T03:54:09;2.43;;;1.97;;
27833;SDS011;15200;50.570;7.244;2023-02-28T03:56:38;5.13;;;2.33;;
27833;SDS011;15200;50.570;7.244;2023-02-28T03:59:20;2.63;;;1.70;;
27833;SDS011;15200;50.570;7.244;2023-02-28T04:02:06;4.60;;;2.50;;
27833;SDS011;15200;50.570;7.244;2023-02-28T04:04:34;3.53;;;2.13;;
27833;SDS011;15200;50.570;7.244;2023-02-28T04:07:07;5.20;;;3.10;;
27833;SDS011;15200;50.570;7.244;2023-02-28T04:09:30;3.93;;;3.10;;
27833;SDS011;15200;50.570;7.244;2023-02-28T04:11:57;4.03;;;2.13;;
27833;SDS011;15200;50.570;7.244;2023-02-28T04:14:25;4.30;;;2.20;;
27833;SDS011;15200;50.570;7.244;2023-02-28T04:16:52;3.00;;;2.20;;
27833;SDS011;15200;50.570;7.244;2023-02-28T04:19:20;3.13;;;2.40;;
27833;SDS011;15200;50.570;7.244;2023-02-28T04:21:48;2.67;;;2.00;;
27833;SDS011;15200;50.570;7.244;2023-02-28T04:24:17;3.83;;;2.47;;
27833;SDS011;15200;50.570;7.244;2023-02-28T04:26:45;3.87;;;1.90;;
27833;SDS011;15200;50.570;7.244;2023-02-28T04:29:14;4.57;;;2.23;;
27833;SDS011;15200;50.570;7.244;2023-02-28T04:31:42;3.53;;;2.10;;
27833;SDS011;15200;50.570;7.244;2023-02-28T04:34:09;4.47;;;2.17;;
27833;SDS011;15200;50.570;7.244;2023-02-28T04:36:36;4.93;;;2.20;;
27833;SDS011;15200;50.570;7.244;2023-02-28T04:39:04;3.10;;;1.90;;
27833;SDS011;15200;50.570;7.244;2023-02-28T04:44:18;6.23;;;2.30;;
27833;SDS011;15200;50.570;7.244;2023-02-28T04:46:47;4.53;;;2.20;;
27833;SDS011;15200;50.570;7.244;2023-02-28T04:49:14;3.83;;;2.10;;
27833;SDS011;15200;50.570;7.244;2023-02-28T04:51:41;2.47;;;1.83;;
27833;SDS011;15200;50.570;7.244;2023-02-28T04:54:09;5.13;;;2.07;;
27833;SDS011;15200;50.570;7.244;2023-02-28T04:56:36;2.80;;;2.43;;
27833;SDS011;15200;50.570;7.244;2023-02-28T04:59:03;2.70;;;2.33;;
27833;SDS011;15200;50.570;7.244;2023-02-28T05:01:32;2.97;;;2.20;;
27833;SDS011;15200;50.570;7.244;2023-02-28T05:04:00;2.83;;;2.10;;
27833;SDS011;15200;50.570;7.244;2023-02-28T05:06:29;3.43;;;2.30;;
27833;SDS011;15200;50.570;7.244;2023-02-28T05:09:16;2.93;;;2.20;;
27833;SDS011;15200;50.570;7.244;2023-02-28T05:11:44;4.37;;;2.40;;
27833;SDS011;15200;50.570;7.244;2023-02-28T05:14:12;3.50;;;2.00;;
27833;SDS011;15200;50.570;7.244;2023-02-28T05:16:40;3.17;;;2.20;;
27833;SDS011;15200;50.570;7.244;2023-02-28T05:19:07;6.43;;;2.50;;
27833;SDS011;15200;50.570;7.244;2023-02-28T05:21:36;2.70;;;2.03;;
27833;SDS011;15200;50.570;7.244;2023-02-28T05:24:09;5.40;;;2.07;;
27833;SDS011;15200;50.570;7.244;2023-02-28T05:26:36;4.63;;;1.83;;
27833;SDS011;15200;50.570;7.244;2023-02-28T05:29:04;4.10;;;2.50;;
27833;SDS011;15200;50.570;7.244;2023-02-28T05:31:31;5.60;;;2.20;;
27833;SDS011;15200;50.570;7.244;2023-02-28T05:33:58;3.03;;;2.47;;
27833;SDS011;15200;50.570;7.244;2023-02-28T05:36:26;5.43;;;2.77;;
27833;SDS011;15200;50.570;7.244;2023-02-28T05:38:53;5.23;;;2.77;;
27833;SDS011;15200;50.570;7.244;2023-02-28T05:41:20;3.43;;;2.00;;
27833;SDS011;15200;50.570;7.244;2023-02-28T05:43:48;3.00;;;2.40;;
27833;SDS011;15200;50.570;7.244;2023-02-28T05:46:15;5.37;;;2.43;;
27833;SDS011;15200;50.570;7.244;2023-02-28T05:48:45;2.17;;;1.97;;
27833;SDS011;15200;50.570;7.244;2023-02-28T05:51:12;2.43;;;2.07;;
27833;SDS011;15200;50.570;7.244;2023-02-28T05:53:39;2.70;;;2.00;;
27833;SDS011;15200;50.570;7.244;2023-02-28T05:56:06;2.93;;;2.20;;
27833;SDS011;15200;50.570;7.244;2023-02-28T05:58:34;3.93;;;2.40;;
27833;SDS011;15200;50.570;7.244;2023-02-28T06:01:18;3.07;;;2.10;;
27833;SDS011;15200;50.570;7.244;2023-02-28T06:03:30;3.93;;;2.40;;
27833;SDS011;15200;50.570;7.244;2023-02-28T06:05:57;4.57;;;2.40;;
27833;SDS011;15200;50.570;7.244;2023-02-28T06:08:24;7.00;;;2.30;;
27833;SDS011;15200;50.570;7.244;2023-02-28T06:10:52;4.90;;;2.50;;
27833;SDS011;15200;50.570;7.244;2023-02-28T06:13:21;3.10;;;2.60;;
27833;SDS011;15200;50.570;7.244;2023-02-28T06:15:48;6.37;;;3.00;;
27833;SDS011;15200;50.570;7.244;2023-02-28T06:18:15;2.87;;;2.53;;
27833;SDS011;15200;50.570;7.244;2023-02-28T06:20:42;5.30;;;2.70;;
27833;SDS011;15200;50.570;7.244;2023-02-28T06:23:10;6.17;;;3.63;;
27833;SDS011;15200;50.570;7.244;2023-02-28T06:25:38;4.27;;;2.77;;
27833;SDS011;15200;50.570;7.244;2023-02-28T06:28:05;5.27;;;2.97;;
27833;SDS011;15200;50.570;7.244;2023-02-28T06:30:32;5.67;;;2.67;;
27833;SDS011;15200;50.570;7.244;2023-02-28T06:33:00;7.53;;;2.87;;
27833;SDS011;15200;50.570;7.244;2023-02-28T06:35:27;4.90;;;2.60;;
27833;SDS011;15200;50.570;7.244;2023-02-28T06:37:54;7.10;;;2.77;;
27833;SDS011;15200;50.570;7.244;2023-02-28T06:40:22;4.80;;;2.87;;
27833;SDS011;15200;50.570;7.244;2023-02-28T06:42:49;4.73;;;2.67;;
27833;SDS011;15200;50.570;7.244;2023-02-28T06:45:16;5.23;;;3.07;;
27833;SDS011;15200;50.570;7.244;2023-02-28T06:47:43;9.67;;;2.97;;
27833;SDS011;15200;50.570;7.244;2023-02-28T06:50:11;6.90;;;2.70;;
27833;SDS011;15200;50.570;7.244;2023-02-28T06:52:39;7.73;;;2.70;;
27833;SDS011;15200;50.570;7.244;2023-02-28T06:55:07;5.97;;;3.83;;
27833;SDS011;15200;50.570;7.244;2023-02-28T06:57:35;4.60;;;2.87;;
27833;SDS011;15200;50.570;7.244;2023-02-28T07:00:07;6.00;;;2.87;;
27833;SDS011;15200;50.570;7.244;2023-02-28T07:02:35;4.70;;;2.90;;
27833;SDS011;15200;50.570;7.244;2023-02-28T07:05:02;11.00;;;3.57;;
27833;SDS011;15200;50.570;7.244;2023-02-28T07:07:29;5.43;;;3.30;;
27833;SDS011;15200;50.570;7.244;2023-02-28T07:10:02;7.10;;;3.60;;
27833;SDS011;15200;50.570;7.244;2023-02-28T07:12:30;6.27;;;4.30;;
27833;SDS011;15200;50.570;7.244;2023-02-28T07:14:57;11.73;;;5.53;;
27833;SDS011;15200;50.570;7.244;2023-02-28T07:17:24;4.40;;;2.97;;
27833;SDS011;15200;50.570;7.244;2023-02-28T07:19:52;16.30;;;4.03;;
27833;SDS011;15200;50.570;7.244;2023-02-28T07:22:19;3.77;;;2.70;;
27833;SDS011;15200;50.570;7.244;2023-02-28T07:24:46;6.43;;;3.23;;
27833;SDS011;15200;50.570;7.244;2023-02-28T07:27:14;6.23;;;3.50;;
27833;SDS011;15200;50.570;7.244;2023-02-28T07:29:46;3.57;;;3.03;;
27833;SDS011;15200;50.570;7.244;2023-02-28T07:32:13;9.20;;;3.70;;
27833;SDS011;15200;50.570;7.244;2023-02-28T07:34:40;3.53;;;2.70;;
27833;SDS011;15200;50.570;7.244;2023-02-28T07:37:07;4.37;;;2.73;;
27833;SDS011;15200;50.570;7.244;2023-02-28T07:39:35;3.63;;;2.73;;
27833;SDS011;15200;50.570;7.244;2023-02-28T07:42:06;3.33;;;2.27;;
27833;SDS011;15200;50.570;7.244;2023-02-28T07:44:35;3.70;;;2.13;;
27833;SDS011;15200;50.570;7.244;2023-02-28T07:47:04;4.97;;;2.73;;
27833;SDS011;15200;50.570;7.244;2023-02-28T07:49:31;4.20;;;2.10;;
27833;SDS011;15200;50.570;7.244;2023-02-28T07:51:58;3.10;;;2.10;;
27833;SDS011;15200;50.570;7.244;2023-02-28T07:54:26;3.23;;;2.53;;
27833;SDS011;15200;50.570;7.244;2023-02-28T07:56:53;3.83;;;2.37;;
27833;SDS011;15200;50.570;7.244;2023-02-28T07:59:20;3.33;;;2.50;;
27833;SDS011;15200;50.570;7.244;2023-02-28T08:01:48;2.40;;;2.00;;
27833;SDS011;15200;50.570;7.244;2023-02-28T08:04:17;3.63;;;2.30;;
27833;SDS011;15200;50.570;7.244;2023-02-28T08:06:44;4.37;;;2.40;;
27833;SDS011;15200;50.570;7.244;2023-02-28T08:09:12;3.00;;;2.30;;
27833;SDS011;15200;50.570;7.244;2023-02-28T08:11:39;4.23;;;2.40;;
27833;SDS011;15200;50.570;7.244;2023-02-28T08:14:06;4.60;;;2.67;;
27833;SDS011;15200;50.570;7.244;2023-02-28T08:16:33;2.70;;;1.70;;
27833;SDS011;15200;50.570;7.244;2023-02-28T08:19:01;2.17;;;1.80;;
27833;SDS011;15200;50.570;7.244;2023-02-28T08:21:28;4.40;;;2.30;;
27833;SDS011;15200;50.570;7.244;2023-02-28T08:23:55;3.53;;;1.77;;
27833;SDS011;15200;50.570;7.244;2023-02-28T08:26:23;2.80;;;1.67;;
27833;SDS011;15200;50.570;7.244;2023-02-28T08:28:50;4.13;;;1.83;;
27833;SDS011;15200;50.570;7.244;2023-02-28T08:31:18;4.37;;;2.23;;
27833;SDS011;15200;50.570;7.244;2023-02-28T08:33:46;3.27;;;2.13;;
27833;SDS011;15200;50.570;7.244;2023-02-28T08:36:14;2.10;;;1.63;;
27833;SDS011;15200;50.570;7.244;2023-02-28T08:38:42;4.67;;;1.60;;
27833;SDS011;15200;50.570;7.244;2023-02-28T08:41:10;1.90;;;1.50;;
27833;SDS011;15200;50.570;7.244;2023-02-28T08:43:38;1.80;;;1.60;;
27833;SDS011;15200;50.570;7.244;2023-02-28T08:46:06;2.57;;;1.33;;
27833;SDS011;15200;50.570;7.244;2023-02-28T08:48:34;3.10;;;2.07;;
27833;SDS011;15200;50.570;7.244;2023-02-28T08:51:08;3.63;;;2.07;;
27833;SDS011;15200;50.570;7.244;2023-02-28T08:53:36;2.20;;;1.70;;
27833;SDS011;15200;50.570;7.244;2023-02-28T08:56:09;3.07;;;1.97;;
27833;SDS011;15200;50.570;7.244;2023-02-28T08:58:33;3.53;;;1.70;;
27833;SDS011;15200;50.570;7.244;2023-02-28T09:01:00;3.53;;;2.00;;
27833;SDS011;15200;50.570;7.244;2023-02-28T09:03:29;2.33;;;1.67;;
27833;SDS011;15200;50.570;7.244;2023-02-28T09:05:57;2.43;;;2.00;;
27833;SDS011;15200;50.570;7.244;2023-02-28T09:08:26;2.17;;;1.77;;
27833;SDS011;15200;50.570;7.244;2023-02-28T09:10:53;4.70;;;2.00;;
27833;SDS011;15200;50.570;7.244;2023-02-28T09:13:23;3.57;;;2.10;;
27833;SDS011;15200;50.570;7.244;2023-02-28T09:15:51;2.03;;;1.80;;
27833;SDS011;15200;50.570;7.244;2023-02-28T09:18:18;4.47;;;1.53;;
27833;SDS011;15200;50.570;7.244;2023-02-28T09:23:32;3.00;;;2.03;;
27833;SDS011;15200;50.570;7.244;2023-02-28T09:25:59;3.13;;;1.77;;
27833;SDS011;15200;50.570;7.244;2023-02-28T09:28:27;3.33;;;1.90;;
27833;SDS011;15200;50.570;7.244;2023-02-28T09:30:54;3.40;;;1.83;;
27833;SDS011;15200;50.570;7.244;2023-02-28T09:33:23;3.70;;;2.03;;
27833;SDS011;15200;50.570;7.244;2023-02-28T09:35:51;2.37;;;1.73;;
27833;SDS011;15200;50.570;7.244;2023-02-28T09:38:18;3.23;;;1.67;;
27833;SDS011;15200;50.570;7.244;2023-02-28T09:40:50;2.20;;;1.63;;
27833;SDS011;15200;50.570;7.244;2023-02-28T09:43:19;3.53;;;1.60;;
27833;SDS011;15200;50.570;7.244;2023-02-28T09:45:48;1.93;;;1.70;;
27833;SDS011;15200;50.570;7.244;2023-02-28T09:48:20;3.53;;;2.10;;
27833;SDS011;15200;50.570;7.244;2023-02-28T09:50:48;3.60;;;1.80;;
27833;SDS011;15200;50.570;7.244;2023-02-28T09:53:27;3.60;;;1.57;;
27833;SDS011;15200;50.570;7.244;2023-02-28T09:56:17;4.30;;;1.97;;
27833;SDS011;15200;50.570;7.244;2023-02-28T09:58:32;3.87;;;2.00;;
27833;SDS011;15200;50.570;7.244;2023-02-28T10:03:34;2.57;;;2.00;;
27833;SDS011;15200;50.570;7.244;2023-02-28T10:06:08;3.57;;;1.93;;
27833;SDS011;15200;50.570;7.244;2023-02-28T10:11:19;2.10;;;1.70;;
27833;SDS011;15200;50.570;7.244;2023-02-28T10:14:01;1.77;;;1.40;;
27833;SDS011;15200;50.570;7.244;2023-02-28T10:16:34;2.70;;;1.87;;
27833;SDS011;15200;50.570;7.244;2023-02-28T10:19:02;2.77;;;1.70;;
27833;SDS011;15200;50.570;7.244;2023-02-28T10:24:19;3.50;;;1.80;;
27833;SDS011;15200;50.570;7.244;2023-02-28T10:26:32;2.03;;;1.70;;
27833;SDS011;15200;50.570;7.244;2023-02-28T10:28:59;1.33;;;1.23;;
27833;SDS011;15200;50.570;7.244;2023-02-28T10:31:27;2.10;;;1.50;;
27833;SDS011;15200;50.570;7.244;2023-02-28T10:33:54;1.83;;;1.47;;
27833;SDS011;15200;50.570;7.244;2023-02-28T10:36:22;2.40;;;1.60;;
27833;SDS011;15200;50.570;7.244;2023-02-28T10:38:49;2.93;;;1.53;;
27833;SDS011;15200;50.570;7.244;2023-02-28T10:41:26;2.62;;;1.60;;
27833;SDS011;15200;50.570;7.244;2023-02-28T10:43:45;2.73;;;1.67;;
27833;SDS011;15200;50.570;7.244;2023-02-28T10:46:13;3.37;;;1.57;;
27833;SDS011;15200;50.570;7.244;2023-02-28T10:49:03;2.10;;;1.53;;
27833;SDS011;15200;50.570;7.244;2023-02-28T10:51:37;4.72;;;1.80;;
27833;SDS011;15200;50.570;7.244;2023-02-28T10:54:04;1.90;;;1.50;;
27833;SDS011;15200;50.570;7.244;2023-02-28T10:56:32;1.62;;;1.40;;
27833;SDS011;15200;50.570;7.244;2023-02-28T10:59:00;1.82;;;1.30;;
27833;SDS011;15200;50.570;7.244;2023-02-28T11:01:47;2.22;;;1.55;;
27833;SDS011;15200;50.570;7.244;2023-02-28T11:04:47;4.30;;;1.35;;
27833;SDS011;15200;50.570;7.244;2023-02-28T11:06:56;2.52;;;1.80;;
27833;SDS011;15200;50.570;7.244;2023-02-28T11:09:22;3.27;;;1.77;;
27833;SDS011;15200;50.570;7.244;2023-02-28T11:11:49;1.55;;;1.40;;
27833;SDS011;15200;50.570;7.244;2023-02-28T11:14:23;2.22;;;1.60;;
27833;SDS011;15200;50.570;7.244;2023-02-28T11:19:43;1.80;;;1.30;;
27833;SDS011;15200;50.570;7.244;2023-02-28T11:22:09;2.55;;;1.52;;
27833;SDS011;15200;50.570;7.244;2023-02-28T11:24:37;2.67;;;1.70;;
27833;SDS011;15200;50.570;7.244;2023-02-28T11:27:05;1.90;;;1.50;;
27833;SDS011;15200;50.570;7.244;2023-02-28T11:29:34;2.33;;;1.40;;
27833;SDS011;15200;50.570;7.244;2023-02-28T11:32:05;3.30;;;1.32;;
27833;SDS011;15200;50.570;7.244;2023-02-28T11:34:34;2.02;;;1.52;;
27833;SDS011;15200;50.570;7.244;2023-02-28T11:37:02;3.47;;;1.42;;
27833;SDS011;15200;50.570;7.244;2023-02-28T11:39:32;1.30;;;1.20;;
27833;SDS011;15200;50.570;7.244;2023-02-28T11:42:21;2.70;;;1.60;;
27833;SDS011;15200;50.570;7.244;2023-02-28T11:45:19;2.67;;;1.67;;
27833;SDS011;15200;50.570;7.244;2023-02-28T11:52:45;1.90;;;1.65;;
27833;SDS011;15200;50.570;7.244;2023-02-28T12:05:45;2.92;;;1.50;;
27833;SDS011;15200;50.570;7.244;2023-02-28T12:08:20;1.90;;;1.55;;
27833;SDS011;15200;50.570;7.244;2023-02-28T12:10:51;2.50;;;1.50;;
27833;SDS011;15200;50.570;7.244;2023-02-28T12:18:42;1.80;;;1.62;;
27833;SDS011;15200;50.570;7.244;2023-02-28T12:21:19;1.82;;;1.52;;
27833;SDS011;15200;50.570;7.244;2023-02-28T12:23:52;2.15;;;1.62;;
27833;SDS011;15200;50.570;7.244;2023-02-28T12:28:57;3.00;;;1.40;;
27833;SDS011;15200;50.570;7.244;2023-02-28T12:31:24;1.77;;;1.22;;
27833;SDS011;15200;50.570;7.244;2023-02-28T12:33:51;2.15;;;1.60;;
27833;SDS011;15200;50.570;7.244;2023-02-28T12:36:19;2.55;;;1.35;;
27833;SDS011;15200;50.570;7.244;2023-02-28T12:38:56;2.95;;;1.72;;
27833;SDS011;15200;50.570;7.244;2023-02-28T12:44:03;1.70;;;1.37;;
27833;SDS011;15200;50.570;7.244;2023-02-28T12:46:32;1.95;;;1.65;;
27833;SDS011;15200;50.570;7.244;2023-02-28T12:49:00;6.17;;;1.80;;
27833;SDS011;15200;50.570;7.244;2023-02-28T12:51:27;2.52;;;1.60;;
27833;SDS011;15200;50.570;7.244;2023-02-28T12:56:42;2.08;;;1.67;;
27833;SDS011;15200;50.570;7.244;2023-02-28T12:59:13;2.62;;;1.77;;
27833;SDS011;15200;50.570;7.244;2023-02-28T13:01:49;2.77;;;1.50;;
27833;SDS011;15200;50.570;7.244;2023-02-28T13:04:29;3.83;;;1.82;;
27833;SDS011;15200;50.570;7.244;2023-02-28T13:07:00;3.17;;;1.85;;
27833;SDS011;15200;50.570;7.244;2023-02-28T13:09:27;1.55;;;1.35;;
27833;SDS011;15200;50.570;7.244;2023-02-28T13:11:56;3.37;;;1.80;;
27833;SDS011;15200;50.570;7.244;2023-02-28T13:14:28;2.80;;;1.67;;
27833;SDS011;15200;50.570;7.244;2023-02-28T13:19:30;1.30;;;1.20;;
27833;SDS011;15200;50.570;7.244;2023-02-28T13:21:58;3.22;;;1.92;;
27833;SDS011;15200;50.570;7.244;2023-02-28T13:27:20;3.20;;;1.67;;
27833;SDS011;15200;50.570;7.244;2023-02-28T13:29:42;2.72;;;1.57;;
27833;SDS011;15200;50.570;7.244;2023-02-28T13:39:57;4.33;;;1.87;;
27833;SDS011;15200;50.570;7.244;2023-02-28T13:45:19;2.83;;;1.90;;
27833;SDS011;15200;50.570;7.244;2023-02-28T13:47:30;3.50;;;1.60;;
27833;SDS011;15200;50.570;7.244;2023-02-28T13:52:46;2.60;;;1.47;;
27833;SDS011;15200;50.570;7.244;2023-02-28T13:55:19;2.58;;;1.80;;
27833;SDS011;15200;50.570;7.244;2023-02-28T14:05:24;2.40;;;2.15;;
27833;SDS011;15200;50.570;7.244;2023-02-28T14:07:53;2.77;;;2.05;;
27833;SDS011;15200;50.570;7.244;2023-02-28T14:12:54;4.80;;;2.22;;
27833;SDS011;15200;50.570;7.244;2023-02-28T14:15:26;3.02;;;2.10;;
27833;SDS011;15200;50.570;7.244;2023-02-28T14:17:53;4.10;;;2.20;;
27833;SDS011;15200;50.570;7.244;2023-02-28T14:20:21;5.00;;;2.33;;
27833;SDS011;15200;50.570;7.244;2023-02-28T14:23:04;3.90;;;2.12;;
27833;SDS011;15200;50.570;7.244;2023-02-28T14:25:38;2.42;;;2.02;;
27833;SDS011;15200;50.570;7.244;2023-02-28T14:33:27;2.85;;;2.50;;
27833;SDS011;15200;50.570;7.244;2023-02-28T14:38:34;4.22;;;2.27;;
27833;SDS011;15200;50.570;7.244;2023-02-28T14:41:03;4.22;;;2.22;;
27833;SDS011;15200;50.570;7.244;2023-02-28T14:43:29;2.85;;;2.58;;
27833;SDS011;15200;50.570;7.244;2023-02-28T14:45:58;3.37;;;2.27;;
27833;SDS011;15200;50.570;7.244;2023-02-28T14:48:26;3.87;;;2.00;;
27833;SDS011;15200;50.570;7.244;2023-02-28T14:50:57;2.97;;;1.90;;
27833;SDS011;15200;50.570;7.244;2023-02-28T14:53:26;2.87;;;2.30;;
27833;SDS011;15200;50.570;7.244;2023-02-28T14:55:54;4.22;;;2.90;;
27833;SDS011;15200;50.570;7.244;2023-02-28T14:58:27;5.17;;;3.02;;
27833;SDS011;15200;50.570;7.244;2023-02-28T15:00:51;4.20;;;2.57;;
27833;SDS011;15200;50.570;7.244;2023-02-28T15:03:24;3.92;;;2.80;;
27833;SDS011;15200;50.570;7.244;2023-02-28T15:05:52;2.83;;;2.50;;
27833;SDS011;15200;50.570;7.244;2023-02-28T15:08:20;4.12;;;2.72;;
27833;SDS011;15200;50.570;7.244;2023-02-28T15:10:51;4.55;;;3.05;;
27833;SDS011;15200;50.570;7.244;2023-02-28T15:13:19;3.80;;;2.83;;
27833;SDS011;15200;50.570;7.244;2023-02-28T15:15:56;4.53;;;2.47;;
27833;SDS011;15200;50.570;7.244;2023-02-28T15:18:33;3.30;;;2.10;;
27833;SDS011;15200;50.570;7.244;2023-02-28T15:20:56;4.87;;;2.73;;
27833;SDS011;15200;50.570;7.244;2023-02-28T15:23:24;3.58;;;2.52;;
27833;SDS011;15200;50.570;7.244;2023-02-28T15:25:52;3.98;;;1.98;;
27833;SDS011;15200;50.570;7.244;2023-02-28T15:28:22;4.72;;;2.40;;
27833;SDS011;15200;50.570;7.244;2023-02-28T15:30:51;5.33;;;3.12;;
27833;SDS011;15200;50.570;7.244;2023-02-28T15:33:20;3.02;;;2.25;;
27833;SDS011;15200;50.570;7.244;2023-02-28T15:35:48;3.72;;;2.60;;
27833;SDS011;15200;50.570;7.244;2023-02-28T15:38:18;5.05;;;2.58;;
27833;SDS011;15200;50.570;7.244;2023-02-28T15:40:49;4.53;;;2.90;;
27833;SDS011;15200;50.570;7.244;2023-02-28T15:43:17;3.52;;;2.65;;
27833;SDS011;15200;50.570;7.244;2023-02-28T15:45:49;3.67;;;2.77;;
27833;SDS011;15200;50.570;7.244;2023-02-28T15:48:19;3.72;;;2.85;;
27833;SDS011;15200;50.570;7.244;2023-02-28T15:50:42;6.62;;;2.62;;
27833;SDS011;15200;50.570;7.244;2023-02-28T15:53:13;7.62;;;2.58;;
27833;SDS011;15200;50.570;7.244;2023-02-28T15:55:40;3.72;;;3.15;;
27833;SDS011;15200;50.570;7.244;2023-02-28T15:58:10;5.83;;;3.00;;
27833;SDS011;15200;50.570;7.244;2023-02-28T16:00:38;4.28;;;2.62;;
27833;SDS011;15200;50.570;7.244;2023-02-28T16:03:25;5.17;;;2.92;;
27833;SDS011;15200;50.570;7.244;2023-02-28T16:08:38;5.22;;;3.20;;
27833;SDS011;15200;50.570;7.244;2023-02-28T16:11:05;5.33;;;2.95;;
27833;SDS011;15200;50.570;7.244;2023-02-28T16:13:34;5.95;;;3.45;;
27833;SDS011;15200;50.570;7.244;2023-02-28T16:16:01;3.80;;;2.72;;
27833;SDS011;15200;50.570;7.244;2023-02-28T16:18:28;6.08;;;3.25;;
27833;SDS011;15200;50.570;7.244;2023-02-28T16:20:56;7.30;;;3.00;;
27833;SDS011;15200;50.570;7.244;2023-02-28T16:23:23;7.90;;;4.63;;
27833;SDS011;15200;50.570;7.244;2023-02-28T16:25:50;5.17;;;3.70;;
27833;SDS011;15200;50.570;7.244;2023-02-28T16:28:24;6.55;;;3.83;;
27833;SDS011;15200;50.570;7.244;2023-02-28T16:30:46;4.20;;;2.75;;
27833;SDS011;15200;50.570;7.244;2023-02-28T16:33:14;5.70;;;3.42;;
27833;SDS011;15200;50.570;7.244;2023-02-28T16:35:41;5.10;;;3.10;;
27833;SDS011;15200;50.570;7.244;2023-02-28T16:38:08;5.03;;;3.37;;
27833;SDS011;15200;50.570;7.244;2023-02-28T16:40:36;5.43;;;2.90;;
27833;SDS011;15200;50.570;7.244;2023-02-28T16:43:05;3.60;;;2.77;;
27833;SDS011;15200;50.570;7.244;2023-02-28T16:45:32;3.47;;;2.67;;